Bloomer, Wisconsin
Current Conditions -  °F | °C
As of 10:15 PM on Sunday 21 Dec 2014 (Local Time) from KY23 Reporting Station
Drizzle Drizzle  
Wind Chill: -1°   Ceiling: 400
Heat Index:   Visibility: 3mi
Dew Point:   Wind: 5mph
Humidity: 99%   Direction: 120°ESE
Pressure: 29.78"   Gusts: NA
Location:  45.1°N, 91.49°W
Report Text: KY23 220415Z AUTO 12004KT 3SM -DZ OVC004 02/02 A2978 RMK AO2 T00160015
Loading
Personal Weather Stations






























Interactive Weather Map New forecast layout! Learn more

10-Day Weather Forecast

Advertisements
Track Severe Weather on mobile